Time;durP1;ratioP1;P1;durP2;ratioP2;P2;SDS_P1;SDS_P2;PMS_P1;PMS_P2;Temp;Humidity;BMP_temperature;BMP_pressure;BME280_temperature;BME280_humidity;BME280_pressure;Samples;Min_cycle;Max_cycle;Signal;HPM_P1;HPM_P2
2023/11/24 00:00:09;;;;;;;25.80;11.52;;;6.20;99.90;;;;;;494062;241;27988;-72
2023/11/24 00:02:07;;;;;;;21.65;11.00;;;6.20;99.90;;;;;;493818;241;27505;-72
2023/11/24 00:04:09;;;;;;;14.98;9.27;;;6.30;99.90;;;;;;493968;241;27531;-72
2023/11/24 00:06:12;;;;;;;20.98;12.00;;;6.30;99.90;;;;;;493992;241;27503;-72
2023/11/24 00:08:11;;;;;;;19.70;10.73;;;6.30;99.90;;;;;;493958;241;27952;-72
2023/11/24 00:10:12;;;;;;;21.62;11.23;;;6.30;99.90;;;;;;494080;241;27985;-72
2023/11/24 00:12:14;;;;;;;22.17;11.55;;;6.30;99.90;;;;;;494073;240;27593;-72
2023/11/24 00:14:15;;;;;;;23.95;12.77;;;6.20;99.90;;;;;;494018;241;27501;-71
2023/11/24 00:16:16;;;;;;;23.15;11.30;;;6.30;99.90;;;;;;494046;241;27473;-72
2023/11/24 00:18:21;;;;;;;19.62;11.18;;;6.30;99.90;;;;;;494004;241;27993;-72
2023/11/24 00:20:19;;;;;;;25.10;12.45;;;6.30;99.90;;;;;;493732;241;27577;-71
2023/11/24 00:22:20;;;;;;;28.17;13.38;;;6.30;99.90;;;;;;493988;241;27501;-72
2023/11/24 00:24:21;;;;;;;22.85;11.55;;;6.30;99.90;;;;;;493962;241;27944;-73
2023/11/24 00:26:26;;;;;;;28.40;14.02;;;6.30;99.90;;;;;;494004;241;27510;-72
2023/11/24 00:28:24;;;;;;;25.25;13.77;;;6.30;99.90;;;;;;493819;241;27608;-73
2023/11/24 00:30:25;;;;;;;33.58;13.73;;;6.30;99.90;;;;;;493999;241;27598;-72
2023/11/24 00:32:26;;;;;;;29.80;12.97;;;6.30;99.90;;;;;;494027;241;27462;-72
2023/11/24 00:34:30;;;;;;;22.98;12.25;;;6.30;99.90;;;;;;494014;241;28755;-72
2023/11/24 00:36:29;;;;;;;22.15;12.80;;;6.30;99.90;;;;;;493802;241;27541;-72
2023/11/24 00:38:30;;;;;;;19.33;11.65;;;6.30;99.90;;;;;;493983;241;27505;-72
2023/11/24 00:40:31;;;;;;;23.17;11.32;;;6.40;99.90;;;;;;494071;237;27529;-72
2023/11/24 00:42:33;;;;;;;26.27;11.55;;;6.40;99.90;;;;;;494087;241;27517;-72
2023/11/24 00:44:34;;;;;;;25.35;11.45;;;6.40;99.90;;;;;;494008;241;27970;-72
2023/11/24 00:46:35;;;;;;;20.23;11.85;;;6.50;99.90;;;;;;493998;241;27465;-72
2023/11/24 00:48:37;;;;;;;20.37;11.30;;;6.40;99.90;;;;;;493986;241;27481;-72
2023/11/24 00:50:38;;;;;;;21.05;10.85;;;6.50;99.90;;;;;;494029;241;27653;-72
2023/11/24 00:52:39;;;;;;;25.27;11.38;;;6.50;99.90;;;;;;494012;241;27573;-72
2023/11/24 00:54:45;;;;;;;18.55;9.65;;;6.50;99.90;;;;;;493990;237;28110;-72
2023/11/24 00:56:46;;;;;;;18.20;10.10;;;6.50;99.90;;;;;;494010;241;27621;-72
2023/11/24 00:58:48;;;;;;;14.18;8.32;;;6.50;99.90;;;;;;494053;239;27932;-72
2023/11/24 01:00:48;;;;;;;14.45;8.65;;;6.60;99.90;;;;;;493970;241;27509;-72
2023/11/24 01:02:50;;;;;;;17.83;8.77;;;6.60;99.90;;;;;;494024;241;27621;-73
2023/11/24 01:04:52;;;;;;;13.13;7.40;;;6.60;99.90;;;;;;494018;241;27523;-72
2023/11/24 01:06:52;;;;;;;12.43;7.53;;;6.60;99.90;;;;;;494050;241;27616;-72
2023/11/24 01:08:54;;;;;;;10.60;7.10;;;6.70;99.90;;;;;;494093;241;27579;-72
2023/11/24 01:10:57;;;;;;;15.67;8.70;;;6.70;99.90;;;;;;494112;241;28016;-72
2023/11/24 01:12:58;;;;;;;15.05;7.85;;;6.60;99.90;;;;;;493913;241;29377;-72
2023/11/24 01:14:57;;;;;;;11.40;7.18;;;6.70;99.90;;;;;;493878;241;27476;-72
2023/11/24 01:16:59;;;;;;;14.57;7.32;;;6.70;99.90;;;;;;494030;241;27513;-72
2023/11/24 01:19:00;;;;;;;8.67;5.90;;;6.70;99.90;;;;;;494030;241;27604;-71
2023/11/24 01:21:01;;;;;;;11.88;7.30;;;6.70;99.90;;;;;;494053;241;28613;-71
2023/11/24 01:23:05;;;;;;;12.13;6.93;;;6.70;99.90;;;;;;494032;241;28019;-72
2023/11/24 01:25:04;;;;;;;11.55;6.28;;;6.70;99.90;;;;;;493762;241;29294;-71
2023/11/24 01:27:06;;;;;;;9.75;6.57;;;6.70;99.90;;;;;;494070;241;27517;-72
2023/11/24 01:29:07;;;;;;;11.52;6.55;;;6.80;99.90;;;;;;494030;241;27518;-74
2023/11/24 01:31:07;;;;;;;10.35;7.10;;;6.80;99.90;;;;;;494027;241;27588;-72
2023/11/24 01:33:09;;;;;;;9.98;6.22;;;6.80;99.90;;;;;;494119;241;27510;-72
2023/11/24 01:35:10;;;;;;;9.10;5.33;;;6.80;99.90;;;;;;494039;241;27940;-71
2023/11/24 01:37:11;;;;;;;8.65;5.80;;;6.90;99.90;;;;;;494037;241;28523;-72
2023/11/24 01:39:14;;;;;;;8.88;5.80;;;6.90;99.90;;;;;;494056;241;28013;-73
2023/11/24 01:41:14;;;;;;;7.53;5.97;;;6.90;99.90;;;;;;493983;241;27472;-72
2023/11/24 01:43:15;;;;;;;6.60;5.12;;;6.90;99.90;;;;;;494057;241;27533;-72
2023/11/24 01:45:16;;;;;;;11.85;5.40;;;7.00;99.90;;;;;;494046;241;27545;-71
2023/11/24 01:47:17;;;;;;;7.33;5.63;;;7.00;99.90;;;;;;494063;241;27469;-72
2023/11/24 01:49:19;;;;;;;8.27;5.40;;;7.00;99.90;;;;;;494100;241;28615;-72
2023/11/24 01:51:20;;;;;;;8.23;5.43;;;7.10;99.90;;;;;;494054;241;29348;-72
2023/11/24 01:53:21;;;;;;;8.10;5.97;;;7.10;99.90;;;;;;494051;241;28044;-72
2023/11/24 01:55:23;;;;;;;9.32;5.50;;;7.00;99.90;;;;;;494101;241;29357;-72
2023/11/24 01:57:24;;;;;;;6.95;4.60;;;7.00;99.90;;;;;;494126;241;27481;-72
2023/11/24 01:59:25;;;;;;;6.78;4.30;;;7.00;99.90;;;;;;494114;241;27507;-72
2023/11/24 02:01:26;;;;;;;6.30;4.25;;;7.10;99.90;;;;;;493993;241;27518;-72
2023/11/24 02:03:27;;;;;;;6.77;4.47;;;7.10;99.90;;;;;;494118;241;27549;-73
2023/11/24 02:05:29;;;;;;;10.17;5.50;;;7.10;99.90;;;;;;494074;241;28102;-73
2023/11/24 02:07:30;;;;;;;5.25;4.10;;;7.20;99.90;;;;;;494104;241;29195;-72
2023/11/24 02:09:33;;;;;;;5.57;3.97;;;7.20;99.90;;;;;;494082;241;27978;-72
2023/11/24 02:11:32;;;;;;;4.37;3.53;;;7.20;99.90;;;;;;493933;241;29429;-72
2023/11/24 02:13:34;;;;;;;5.93;4.37;;;7.30;99.90;;;;;;494030;241;28587;-72
2023/11/24 02:15:35;;;;;;;4.93;4.37;;;7.40;99.90;;;;;;494073;241;28087;-73
2023/11/24 02:17:36;;;;;;;5.73;4.13;;;7.40;99.90;;;;;;494060;241;27473;-72
2023/11/24 02:19:37;;;;;;;5.47;4.53;;;7.50;99.90;;;;;;493971;241;28864;-72
2023/11/24 02:21:39;;;;;;;5.10;4.30;;;7.50;99.90;;;;;;493945;241;28193;-72
2023/11/24 02:23:42;;;;;;;6.77;4.80;;;7.50;99.90;;;;;;494052;241;27951;-72
2023/11/24 02:25:41;;;;;;;4.73;4.20;;;7.50;99.90;;;;;;493891;241;28108;-72
2023/11/24 02:27:43;;;;;;;5.80;4.70;;;7.50;99.90;;;;;;493990;241;28045;-72
2023/11/24 02:29:44;;;;;;;4.57;4.00;;;7.60;99.90;;;;;;493967;241;28435;-72
2023/11/24 02:31:45;;;;;;;5.30;4.10;;;7.50;99.90;;;;;;494029;241;27961;-73
2023/11/24 02:33:49;;;;;;;5.47;4.10;;;7.60;99.90;;;;;;494050;241;27723;-72
2023/11/24 02:35:48;;;;;;;6.30;4.20;;;7.60;99.90;;;;;;493879;241;27956;-72
2023/11/24 02:37:49;;;;;;;4.63;4.23;;;7.60;99.90;;;;;;494055;241;27907;-72
2023/11/24 02:39:50;;;;;;;6.67;4.43;;;7.60;99.90;;;;;;494023;241;28368;-72
2023/11/24 02:41:51;;;;;;;5.20;4.10;;;7.60;99.90;;;;;;494036;241;28448;-72
2023/11/24 02:43:52;;;;;;;3.70;3.40;;;7.60;99.90;;;;;;494008;241;28553;-71
2023/11/24 02:45:54;;;;;;;7.30;4.33;;;7.70;99.90;;;;;;494000;241;28564;-73
2023/11/24 02:47:55;;;;;;;4.27;3.33;;;7.70;99.90;;;;;;494014;241;28037;-72
2023/11/24 02:49:56;;;;;;;4.10;3.50;;;7.70;99.90;;;;;;494022;241;28018;-72
2023/11/24 02:51:58;;;;;;;5.25;3.60;;;7.70;99.90;;;;;;494035;241;28636;-73
2023/11/24 02:53:59;;;;;;;8.17;3.37;;;7.70;99.90;;;;;;493974;241;27549;-72
2023/11/24 02:56:00;;;;;;;3.70;3.40;;;7.70;99.90;;;;;;493974;237;27875;-72
2023/11/24 02:58:01;;;;;;;3.37;2.90;;;7.70;99.90;;;;;;494116;241;28210;-72
2023/11/24 03:00:05;;;;;;;5.53;3.50;;;7.70;99.90;;;;;;494067;241;28010;-72
2023/11/24 03:02:04;;;;;;;3.30;3.10;;;7.70;99.90;;;;;;493925;241;27803;-72
2023/11/24 03:04:05;;;;;;;4.07;3.40;;;7.80;99.90;;;;;;493851;241;27931;-72
2023/11/24 03:06:06;;;;;;;2.67;2.47;;;7.80;99.90;;;;;;494015;241;27980;-72
2023/11/24 03:08:08;;;;;;;3.73;3.40;;;7.80;99.90;;;;;;494033;241;28001;-73
2023/11/24 03:10:09;;;;;;;5.93;3.10;;;7.80;99.90;;;;;;494013;241;28040;-72
2023/11/24 03:12:11;;;;;;;3.90;2.83;;;7.90;99.90;;;;;;494028;241;27916;-72
2023/11/24 03:14:11;;;;;;;3.23;2.90;;;7.90;99.90;;;;;;493962;241;27903;-73
2023/11/24 03:16:12;;;;;;;4.40;3.27;;;7.90;99.90;;;;;;494086;241;27885;-72
2023/11/24 03:18:14;;;;;;;3.60;3.10;;;7.90;99.90;;;;;;494061;241;28074;-72
2023/11/24 03:20:15;;;;;;;3.23;3.03;;;7.90;99.90;;;;;;494088;241;28816;-72
2023/11/24 03:22:16;;;;;;;3.70;3.40;;;7.90;99.90;;;;;;494064;241;28066;-72
2023/11/24 03:24:17;;;;;;;3.57;3.20;;;7.90;99.90;;;;;;494014;237;28107;-74
2023/11/24 03:26:19;;;;;;;3.43;3.13;;;7.90;99.90;;;;;;494049;241;28605;-72
2023/11/24 03:28:20;;;;;;;4.93;3.40;;;8.00;99.90;;;;;;494069;241;28590;-73
2023/11/24 03:30:21;;;;;;;3.63;3.13;;;7.90;99.90;;;;;;494072;241;28409;-72
2023/11/24 03:32:22;;;;;;;3.50;3.20;;;8.00;99.90;;;;;;493899;241;28487;-73
2023/11/24 03:34:24;;;;;;;3.57;3.27;;;7.90;99.90;;;;;;494035;241;28228;-74
2023/11/24 03:36:25;;;;;;;3.73;3.43;;;7.90;99.90;;;;;;494043;241;28088;-72
2023/11/24 03:38:26;;;;;;;3.60;2.67;;;7.90;99.90;;;;;;494020;241;27734;-73
2023/11/24 03:40:27;;;;;;;6.37;4.03;;;8.00;99.90;;;;;;493999;241;27948;-73
2023/11/24 03:42:29;;;;;;;3.57;3.27;;;7.90;99.90;;;;;;494029;241;27695;-72
2023/11/24 03:44:30;;;;;;;6.97;3.90;;;8.00;99.90;;;;;;494039;241;28074;-73
2023/11/24 03:46:31;;;;;;;4.40;3.00;;;8.00;99.90;;;;;;494044;241;28106;-72
2023/11/24 03:48:32;;;;;;;3.90;3.10;;;8.00;99.90;;;;;;493926;241;28323;-73
2023/11/24 03:50:34;;;;;;;3.60;3.30;;;8.00;99.90;;;;;;494015;241;27744;-72
2023/11/24 03:52:35;;;;;;;3.83;3.00;;;8.00;99.90;;;;;;494032;241;27936;-72
2023/11/24 03:54:36;;;;;;;3.60;2.97;;;7.90;99.90;;;;;;494031;241;28084;-72
2023/11/24 03:56:37;;;;;;;3.17;2.90;;;7.90;99.90;;;;;;493989;241;28004;-72
2023/11/24 03:58:39;;;;;;;3.60;3.30;;;8.00;99.90;;;;;;494002;241;28051;-72
2023/11/24 04:00:40;;;;;;;5.23;3.00;;;8.00;99.90;;;;;;494029;241;27942;-72
2023/11/24 04:02:46;;;;;;;3.07;2.87;;;8.00;99.90;;;;;;494001;241;27798;-73
2023/11/24 04:04:49;;;;;;;4.47;3.33;;;8.00;99.90;;;;;;493986;241;27944;-72
2023/11/24 04:06:47;;;;;;;5.23;2.73;;;8.00;99.90;;;;;;493807;241;27868;-73
2023/11/24 04:08:48;;;;;;;3.07;2.87;;;8.00;99.90;;;;;;494061;241;27960;-72
2023/11/24 04:10:49;;;;;;;4.13;3.07;;;8.00;99.90;;;;;;494033;241;27969;-72
2023/11/24 04:12:50;;;;;;;3.50;2.97;;;8.00;99.90;;;;;;494022;241;27949;-73
2023/11/24 04:14:52;;;;;;;4.87;3.40;;;8.00;99.90;;;;;;494035;241;27927;-72
2023/11/24 04:16:53;;;;;;;3.37;2.97;;;8.10;99.90;;;;;;494081;241;27999;-72
2023/11/24 04:18:54;;;;;;;5.10;3.50;;;8.10;99.90;;;;;;494097;241;27859;-72
2023/11/24 04:20:55;;;;;;;2.83;2.63;;;8.00;99.90;;;;;;494047;241;28120;-73
2023/11/24 04:22:57;;;;;;;2.03;1.93;;;8.00;99.90;;;;;;494041;239;28406;-73
2023/11/24 04:24:58;;;;;;;2.17;2.03;;;7.90;99.90;;;;;;494081;241;28364;-74
2023/11/24 04:26:59;;;;;;;2.30;1.90;;;7.80;99.90;;;;;;493942;241;28225;-72
2023/11/24 04:29:02;;;;;;;3.77;1.90;;;7.80;99.90;;;;;;494080;241;28395;-73
2023/11/24 04:31:02;;;;;;;6.33;2.40;;;7.70;99.90;;;;;;494044;241;28478;-73
2023/11/24 04:33:03;;;;;;;4.50;1.83;;;7.70;99.90;;;;;;494000;241;28354;-72
2023/11/24 04:35:05;;;;;;;7.80;2.20;;;7.70;99.90;;;;;;494015;241;27982;-72
2023/11/24 04:37:05;;;;;;;7.03;2.10;;;7.70;99.90;;;;;;493936;241;27977;-73
2023/11/24 04:39:07;;;;;;;5.47;2.30;;;7.70;99.90;;;;;;494036;241;28216;-74
2023/11/24 04:41:08;;;;;;;10.07;2.97;;;7.60;99.90;;;;;;494011;241;27950;-72
2023/11/24 04:43:09;;;;;;;7.23;1.90;;;7.60;99.90;;;;;;494006;241;27989;-72
2023/11/24 04:45:11;;;;;;;5.70;2.03;;;7.60;99.90;;;;;;494114;241;27950;-72
2023/11/24 04:47:12;;;;;;;4.57;1.93;;;7.50;99.90;;;;;;494102;241;28046;-73
2023/11/24 04:49:13;;;;;;;7.07;1.90;;;7.50;99.90;;;;;;494129;241;28079;-73
2023/11/24 04:51:14;;;;;;;5.03;1.80;;;7.50;99.90;;;;;;494019;241;27613;-72
2023/11/24 04:53:15;;;;;;;4.57;2.40;;;7.40;99.90;;;;;;494013;241;27649;-73
2023/11/24 04:55:17;;;;;;;2.50;2.23;;;7.40;99.90;;;;;;494120;241;27938;-72
2023/11/24 04:57:18;;;;;;;5.63;2.23;;;7.40;99.90;;;;;;494095;241;28040;-73
2023/11/24 04:59:21;;;;;;;5.33;1.67;;;7.30;99.90;;;;;;494034;241;28349;-72
2023/11/24 05:01:20;;;;;;;4.33;2.20;;;7.40;99.90;;;;;;493869;241;28568;-72
2023/11/24 05:03:22;;;;;;;7.27;2.17;;;7.30;99.90;;;;;;494027;241;28519;-72
2023/11/24 05:05:23;;;;;;;6.83;2.47;;;7.30;99.90;;;;;;494036;241;28645;-72
2023/11/24 05:07:24;;;;;;;2.73;1.80;;;7.30;99.90;;;;;;494050;241;28234;-72
2023/11/24 05:09:25;;;;;;;5.13;2.20;;;7.20;99.90;;;;;;494026;241;27985;-73
2023/11/24 05:11:27;;;;;;;4.27;1.80;;;7.20;99.90;;;;;;493994;241;27920;-73
2023/11/24 05:13:28;;;;;;;6.47;2.10;;;7.20;99.90;;;;;;494033;241;27982;-74
2023/11/24 05:15:30;;;;;;;8.40;2.33;;;7.20;99.90;;;;;;494138;241;28014;-74
2023/11/24 05:17:30;;;;;;;4.60;1.90;;;7.20;99.90;;;;;;494038;240;27916;-72
2023/11/24 05:19:32;;;;;;;4.03;2.50;;;7.10;99.90;;;;;;494102;241;27939;-73
2023/11/24 05:21:34;;;;;;;2.50;2.20;;;7.10;99.90;;;;;;494108;241;28500;-72
2023/11/24 05:23:35;;;;;;;8.93;3.10;;;7.10;99.90;;;;;;494026;241;28008;-72
2023/11/24 05:25:35;;;;;;;2.40;1.97;;;7.10;99.90;;;;;;494026;241;28069;-73
2023/11/24 05:27:37;;;;;;;4.53;2.00;;;7.10;99.90;;;;;;494012;241;27598;-72
2023/11/24 05:29:38;;;;;;;5.63;2.70;;;7.10;99.90;;;;;;494036;241;28070;-73
2023/11/24 05:31:39;;;;;;;3.60;2.10;;;7.00;99.90;;;;;;494038;241;27939;-72
2023/11/24 05:33:40;;;;;;;6.20;2.30;;;7.00;99.90;;;;;;494035;241;27919;-73
2023/11/24 05:35:42;;;;;;;6.33;2.93;;;7.00;99.90;;;;;;494041;241;28155;-73
2023/11/24 05:37:43;;;;;;;7.50;2.77;;;7.00;99.90;;;;;;494132;241;28413;-72
2023/11/24 05:39:44;;;;;;;4.20;2.07;;;7.00;99.90;;;;;;494029;241;28915;-73
2023/11/24 05:41:45;;;;;;;6.67;2.50;;;6.90;99.90;;;;;;494006;241;29384;-73
2023/11/24 05:43:47;;;;;;;5.50;2.50;;;6.90;99.90;;;;;;494043;241;28290;-73
2023/11/24 05:45:48;;;;;;;7.95;2.50;;;6.90;99.90;;;;;;494032;241;28751;-73
2023/11/24 05:47:49;;;;;;;8.70;2.50;;;6.90;99.90;;;;;;494031;241;27473;-72
2023/11/24 05:49:52;;;;;;;7.22;2.40;;;6.80;99.90;;;;;;494022;241;27505;-72
2023/11/24 05:51:54;;;;;;;10.20;3.30;;;6.80;99.90;;;;;;493846;241;27564;-74
2023/11/24 05:53:56;;;;;;;9.10;2.25;;;6.70;99.90;;;;;;494037;241;27509;-74
2023/11/24 05:55:57;;;;;;;6.10;2.30;;;6.70;99.90;;;;;;494033;241;27471;-72
2023/11/24 05:57:58;;;;;;;10.25;2.60;;;6.60;99.90;;;;;;494019;241;27510;-72
2023/11/24 05:59:59;;;;;;;10.13;3.10;;;6.50;99.90;;;;;;494027;241;27529;-72
2023/11/24 06:02:03;;;;;;;7.40;2.50;;;6.40;99.90;;;;;;494015;241;27620;-73
2023/11/24 06:04:02;;;;;;;7.28;2.67;;;6.40;99.90;;;;;;493882;241;27958;-74
2023/11/24 06:06:03;;;;;;;6.35;2.50;;;6.30;99.90;;;;;;494008;237;27458;-72
2023/11/24 06:08:05;;;;;;;5.47;2.25;;;6.20;99.90;;;;;;494015;237;27545;-73
2023/11/24 06:10:06;;;;;;;10.90;2.65;;;6.20;99.90;;;;;;493951;241;27635;-73
2023/11/24 06:12:07;;;;;;;7.53;2.67;;;6.20;99.90;;;;;;494033;241;27457;-72
2023/11/24 06:14:08;;;;;;;6.10;2.15;;;6.10;99.90;;;;;;494013;241;27490;-73
2023/11/24 06:16:10;;;;;;;7.65;2.67;;;6.10;99.90;;;;;;494115;241;27903;-72
2023/11/24 06:18:11;;;;;;;9.18;3.05;;;6.10;99.90;;;;;;494093;241;27995;-73
2023/11/24 06:20:12;;;;;;;4.75;2.62;;;6.00;99.90;;;;;;494043;241;27530;-74
2023/11/24 06:22:13;;;;;;;8.35;2.30;;;5.90;99.90;;;;;;494020;241;27541;-73
2023/11/24 06:24:15;;;;;;;5.20;2.50;;;5.90;99.90;;;;;;494006;241;27518;-73
2023/11/24 06:26:16;;;;;;;4.03;2.20;;;5.90;99.90;;;;;;494114;241;27565;-72
2023/11/24 06:28:17;;;;;;;3.28;2.08;;;5.80;99.90;;;;;;494099;241;27541;-73
2023/11/24 06:30:18;;;;;;;14.15;2.67;;;5.80;99.90;;;;;;494106;241;28009;-73
2023/11/24 06:32:20;;;;;;;7.22;2.33;;;5.80;99.90;;;;;;494110;241;27467;-72
2023/11/24 06:34:21;;;;;;;7.03;2.35;;;5.80;99.90;;;;;;494010;241;27529;-73
2023/11/24 06:36:22;;;;;;;6.43;2.72;;;5.80;99.90;;;;;;494008;241;27490;-72
2023/11/24 06:38:25;;;;;;;11.00;2.90;;;5.70;99.90;;;;;;494035;241;27477;-72
2023/11/24 06:40:25;;;;;;;9.38;2.97;;;5.80;99.90;;;;;;494020;241;27555;-73
2023/11/24 06:42:27;;;;;;;8.98;2.35;;;5.80;99.90;;;;;;494072;241;27483;-72
2023/11/24 06:44:27;;;;;;;7.68;2.50;;;5.80;99.90;;;;;;493966;241;28069;-73
2023/11/24 06:46:28;;;;;;;6.30;2.37;;;5.80;99.90;;;;;;494053;241;27516;-73
2023/11/24 06:48:30;;;;;;;7.90;2.87;;;5.80;99.90;;;;;;494019;241;27582;-72
2023/11/24 06:50:31;;;;;;;5.50;2.60;;;5.80;99.90;;;;;;494030;241;27498;-73
2023/11/24 06:52:32;;;;;;;8.82;2.55;;;5.80;99.90;;;;;;494113;241;27599;-72
2023/11/24 06:54:34;;;;;;;4.90;2.20;;;5.90;99.90;;;;;;494119;237;27491;-72
2023/11/24 06:56:35;;;;;;;4.07;2.40;;;5.80;99.90;;;;;;494054;241;27493;-74
2023/11/24 06:58:36;;;;;;;7.87;2.30;;;5.80;99.90;;;;;;494005;241;27934;-72
2023/11/24 07:00:38;;;;;;;12.00;3.17;;;5.90;99.90;;;;;;494059;241;27970;-73
2023/11/24 07:02:39;;;;;;;10.55;2.90;;;5.90;99.90;;;;;;493867;237;27614;-72
2023/11/24 07:04:40;;;;;;;10.40;2.75;;;5.90;99.90;;;;;;494076;241;27465;-72
2023/11/24 07:06:41;;;;;;;9.70;3.08;;;5.90;99.90;;;;;;494143;241;27605;-72
2023/11/24 07:08:42;;;;;;;16.30;2.87;;;5.90;99.90;;;;;;494123;241;27591;-74
2023/11/24 07:10:44;;;;;;;17.10;3.08;;;5.90;99.90;;;;;;494090;241;28178;-73
2023/11/24 07:12:45;;;;;;;8.40;2.65;;;5.90;99.90;;;;;;494154;241;28068;-74
2023/11/24 07:14:47;;;;;;;4.07;2.40;;;5.90;99.90;;;;;;494141;239;27454;-73
2023/11/24 07:16:47;;;;;;;7.43;2.37;;;5.90;99.90;;;;;;494068;241;27600;-74
2023/11/24 07:18:49;;;;;;;16.30;2.87;;;5.90;99.90;;;;;;494148;241;27468;-72
2023/11/24 07:20:51;;;;;;;13.70;3.45;;;5.90;99.90;;;;;;494096;241;27510;-73
2023/11/24 07:22:51;;;;;;;13.32;2.83;;;5.90;99.90;;;;;;493967;241;27966;-73
2023/11/24 07:24:52;;;;;;;9.82;2.95;;;5.90;99.90;;;;;;494024;241;28043;-72
2023/11/24 07:26:54;;;;;;;7.90;2.33;;;5.90;99.90;;;;;;493850;241;27508;-72
2023/11/24 07:28:56;;;;;;;11.35;2.70;;;5.90;99.90;;;;;;494006;241;27580;-72
2023/11/24 07:30:56;;;;;;;12.07;3.00;;;5.90;99.90;;;;;;493992;241;27561;-72
2023/11/24 07:32:57;;;;;;;10.07;2.55;;;5.90;99.90;;;;;;494116;241;27584;-72
2023/11/24 07:34:59;;;;;;;18.02;3.42;;;5.90;99.90;;;;;;494081;241;27963;-72
2023/11/24 07:37:03;;;;;;;9.85;3.45;;;5.90;99.90;;;;;;494081;241;28013;-72
2023/11/24 07:39:04;;;;;;;10.43;2.95;;;5.90;99.90;;;;;;493995;241;27454;-72
2023/11/24 07:41:08;;;;;;;12.50;3.17;;;5.90;99.90;;;;;;494028;241;28097;-73
2023/11/24 07:43:07;;;;;;;9.75;2.78;;;6.00;99.90;;;;;;493847;239;27559;-72
2023/11/24 07:45:10;;;;;;;9.85;3.22;;;5.90;99.90;;;;;;494026;241;27502;-73
2023/11/24 07:47:11;;;;;;;16.83;3.40;;;5.90;99.90;;;;;;493947;241;27622;-74
2023/11/24 07:49:11;;;;;;;12.32;2.85;;;5.90;99.90;;;;;;494002;237;27477;-72
2023/11/24 07:51:12;;;;;;;11.55;3.20;;;5.90;99.90;;;;;;494037;237;27498;-73
2023/11/24 07:53:14;;;;;;;10.45;2.90;;;5.90;99.90;;;;;;493977;241;27946;-72
2023/11/24 07:55:14;;;;;;;16.77;3.22;;;5.90;99.90;;;;;;493994;237;27494;-74
2023/11/24 07:57:16;;;;;;;9.93;3.00;;;5.90;99.90;;;;;;493974;241;27523;-73
2023/11/24 07:59:17;;;;;;;10.90;3.00;;;5.90;99.90;;;;;;493911;241;27463;-73
2023/11/24 08:01:18;;;;;;;19.05;3.70;;;5.90;99.90;;;;;;493910;241;27513;-72
2023/11/24 08:03:19;;;;;;;14.60;3.45;;;5.90;99.90;;;;;;493934;237;27461;-72
2023/11/24 08:05:21;;;;;;;11.98;2.70;;;5.90;99.90;;;;;;494028;241;27930;-72
2023/11/24 08:07:22;;;;;;;12.27;2.70;;;5.90;99.90;;;;;;493940;239;28061;-73
2023/11/24 08:09:25;;;;;;;9.60;2.70;;;5.90;99.90;;;;;;493958;241;27466;-72
2023/11/24 08:11:24;;;;;;;14.60;3.20;;;5.90;99.90;;;;;;493873;241;27572;-73
2023/11/24 08:13:26;;;;;;;15.60;2.90;;;5.90;99.90;;;;;;493990;241;27896;-74
2023/11/24 08:15:27;;;;;;;17.77;4.05;;;5.80;99.90;;;;;;494102;241;27950;-72
2023/11/24 08:17:28;;;;;;;11.50;3.08;;;5.90;99.90;;;;;;494077;241;27587;-72
2023/11/24 08:19:29;;;;;;;12.50;3.17;;;5.80;99.90;;;;;;494114;241;27461;-72
2023/11/24 08:21:31;;;;;;;19.15;3.70;;;5.90;99.90;;;;;;494116;241;27513;-73
2023/11/24 08:23:32;;;;;;;9.13;2.55;;;5.90;99.90;;;;;;494042;241;27540;-73
2023/11/24 08:25:35;;;;;;;10.60;2.95;;;6.00;99.90;;;;;;494111;241;27592;-72
2023/11/24 08:27:35;;;;;;;8.60;2.80;;;5.90;99.90;;;;;;493979;241;27961;-73
2023/11/24 08:29:36;;;;;;;10.98;3.20;;;5.90;99.90;;;;;;494109;241;28756;-72
2023/11/24 08:31:37;;;;;;;11.52;2.92;;;6.00;99.90;;;;;;494038;241;27474;-73
2023/11/24 08:33:38;;;;;;;10.57;2.92;;;6.00;99.90;;;;;;493995;241;27578;-73
2023/11/24 08:35:40;;;;;;;16.80;3.60;;;6.00;99.90;;;;;;494087;241;27561;-73
2023/11/24 08:37:41;;;;;;;12.65;3.58;;;6.10;99.90;;;;;;493991;241;27524;-72
2023/11/24 08:39:42;;;;;;;13.93;2.97;;;6.10;99.90;;;;;;494042;239;28218;-74
2023/11/24 08:41:44;;;;;;;10.53;2.80;;;6.10;99.90;;;;;;494042;241;29092;-72
2023/11/24 08:43:48;;;;;;;11.83;3.67;;;6.00;99.90;;;;;;494045;241;28866;-73
2023/11/24 08:45:49;;;;;;;9.38;3.42;;;6.00;99.90;;;;;;494028;241;28111;-72
2023/11/24 08:47:50;;;;;;;7.32;2.50;;;6.00;99.90;;;;;;494015;241;27533;-72
2023/11/24 08:49:51;;;;;;;9.55;2.83;;;6.00;99.90;;;;;;494028;241;27477;-72
2023/11/24 08:51:53;;;;;;;9.70;3.20;;;6.00;99.90;;;;;;494046;241;27553;-73
2023/11/24 08:53:54;;;;;;;12.15;3.15;;;6.00;99.90;;;;;;494023;241;27470;-72
2023/11/24 08:55:55;;;;;;;7.60;2.40;;;6.00;99.90;;;;;;494043;241;28090;-72
2023/11/24 08:57:59;;;;;;;13.30;2.53;;;6.10;99.90;;;;;;494032;241;28099;-74
2023/11/24 08:59:58;;;;;;;7.32;2.25;;;6.00;99.90;;;;;;493818;241;27603;-72
2023/11/24 09:01:59;;;;;;;12.40;2.85;;;6.10;99.90;;;;;;494036;241;27498;-72
2023/11/24 09:04:00;;;;;;;11.07;2.30;;;6.00;99.90;;;;;;494026;241;27477;-72
2023/11/24 09:06:02;;;;;;;8.95;2.55;;;6.10;99.90;;;;;;494012;241;27513;-72
2023/11/24 09:08:03;;;;;;;6.55;2.90;;;6.00;99.90;;;;;;494020;241;27968;-73
2023/11/24 09:10:04;;;;;;;9.27;2.37;;;6.00;99.90;;;;;;494042;241;28124;-73
2023/11/24 09:12:05;;;;;;;10.63;2.55;;;5.90;99.90;;;;;;494030;241;27512;-72
2023/11/24 09:14:07;;;;;;;9.40;2.40;;;5.90;99.90;;;;;;494008;241;27513;-72
2023/11/24 09:16:08;;;;;;;11.50;2.60;;;6.00;99.90;;;;;;493993;241;27482;-72
2023/11/24 09:18:09;;;;;;;5.93;2.28;;;6.10;99.90;;;;;;494016;241;27600;-73
2023/11/24 09:20:16;;;;;;;7.78;2.30;;;6.10;99.90;;;;;;494116;241;28023;-73
2023/11/24 09:22:12;;;;;;;8.43;2.33;;;6.30;99.90;;;;;;493640;241;27961;-73
2023/11/24 09:24:14;;;;;;;13.27;2.62;;;6.40;99.90;;;;;;494036;241;27623;-74
2023/11/24 09:26:14;;;;;;;13.65;2.80;;;6.50;99.90;;;;;;493926;241;27469;-73
2023/11/24 09:28:16;;;;;;;10.10;2.13;;;6.40;99.90;;;;;;494085;241;27539;-73
2023/11/24 09:30:17;;;;;;;7.80;2.27;;;6.40;99.90;;;;;;494085;237;27726;-72
2023/11/24 09:32:18;;;;;;;9.67;3.10;;;6.40;99.90;;;;;;493994;241;28835;-72
2023/11/24 09:34:19;;;;;;;15.87;3.10;;;6.40;99.90;;;;;;494019;241;28933;-74
2023/11/24 09:36:20;;;;;;;7.50;2.90;;;6.40;99.90;;;;;;494100;241;28714;-72
2023/11/24 09:38:21;;;;;;;19.37;3.27;;;6.40;99.90;;;;;;494121;241;28528;-73
2023/11/24 09:40:23;;;;;;;12.50;2.80;;;6.40;99.90;;;;;;494138;241;30429;-72
2023/11/24 09:42:24;;;;;;;9.63;2.53;;;6.40;99.90;;;;;;494043;237;28428;-72
2023/11/24 09:44:25;;;;;;;10.87;2.87;;;6.40;99.90;;;;;;494029;241;28109;-73
2023/11/24 09:46:27;;;;;;;13.25;2.50;;;6.40;99.90;;;;;;494047;241;28920;-72
2023/11/24 09:48:29;;;;;;;14.68;3.00;;;6.50;99.90;;;;;;494012;241;27515;-73
2023/11/24 09:50:30;;;;;;;8.02;3.05;;;6.50;99.90;;;;;;493911;237;27544;-74
2023/11/24 09:52:30;;;;;;;13.47;3.33;;;6.50;99.90;;;;;;493975;241;27561;-72
2023/11/24 09:54:32;;;;;;;12.70;3.30;;;6.50;99.90;;;;;;494002;237;29411;-73
2023/11/24 09:56:33;;;;;;;6.85;3.00;;;6.40;99.90;;;;;;494021;241;29338;-72
2023/11/24 09:58:34;;;;;;;11.93;2.60;;;6.40;99.90;;;;;;494038;241;27473;-72
2023/11/24 10:00:35;;;;;;;14.47;2.67;;;6.40;99.90;;;;;;494123;241;28092;-73
2023/11/24 10:02:37;;;;;;;9.30;2.63;;;6.40;99.90;;;;;;494155;241;27710;-73
2023/11/24 10:04:38;;;;;;;10.40;3.00;;;6.50;99.90;;;;;;494076;241;27992;-72
2023/11/24 10:06:41;;;;;;;14.48;2.85;;;6.50;99.90;;;;;;494124;241;27520;-74
2023/11/24 10:08:40;;;;;;;7.70;2.60;;;6.40;99.90;;;;;;493969;241;27480;-72
2023/11/24 10:10:42;;;;;;;8.47;2.50;;;6.30;99.90;;;;;;494063;241;28045;-73
2023/11/24 10:12:43;;;;;;;4.70;2.50;;;6.30;99.90;;;;;;494052;241;28762;-72
2023/11/24 10:14:44;;;;;;;11.82;2.40;;;6.20;99.90;;;;;;494039;241;29328;-73
2023/11/24 10:16:47;;;;;;;5.83;2.30;;;6.20;99.90;;;;;;494143;241;27520;-74
2023/11/24 10:18:47;;;;;;;4.90;2.00;;;6.10;99.90;;;;;;494044;241;28863;-73
2023/11/24 10:20:48;;;;;;;10.82;2.72;;;6.10;99.90;;;;;;494153;241;28368;-73
2023/11/24 10:22:49;;;;;;;6.62;2.30;;;6.20;99.90;;;;;;493976;241;27481;-72
2023/11/24 10:24:50;;;;;;;7.70;2.00;;;6.20;99.90;;;;;;494030;241;27478;-72
2023/11/24 10:26:52;;;;;;;5.30;1.95;;;6.10;99.90;;;;;;494062;241;28836;-74
2023/11/24 10:28:53;;;;;;;6.55;2.05;;;6.20;99.90;;;;;;494042;241;27994;-72
2023/11/24 10:30:54;;;;;;;10.00;1.80;;;6.20;99.90;;;;;;494006;241;27983;-73
2023/11/24 10:32:55;;;;;;;5.25;1.90;;;6.20;99.90;;;;;;494032;241;27599;-72
2023/11/24 10:34:57;;;;;;;5.12;2.00;;;6.10;99.90;;;;;;494120;241;27549;-73